Terminal Aerodrome Forecast
Issued by NWS

Home | Current Version | Previous Version | Text Only | Print | Product List | Glossary On
Versions: 1 2 3 4 5 6 7 8 9 10 11 12 13 14 15 16 17 18 19 20
000
FTUS41 KALY 301258 AAA
TAFPSF
TAF AMD
KPSF 301258Z 3013/3112 18012KT 4SM -SN FEW017 OVC040
      TEMPO 3013/3015 2SM -SN OVC017
     FM301800 24012G22KT P6SM -RA OVC030
     FM302300 27015G26KT 2SM -SN BKN020 OVC030
     FM310200 28012G22KT P6SM BKN020
     FM310700 29010G15KT P6SM BKN020=

USA.gov is the U.S. government's official web portal to all federal, state and local government web resources and services.